Time;durP1;ratioP1;P1;durP2;ratioP2;P2;SDS_P1;SDS_P2;PMS_P1;PMS_P2;Temp;Humidity;BMP_temperature;BMP_pressure;BME280_temperature;BME280_humidity;BME280_pressure;Samples;Min_cycle;Max_cycle;Signal;HPM_P1;HPM_P2
2022/09/23 00:02:20;;;;;;;;;;;14.10;99.90;;;;;;4990178;28;19926;-79
2022/09/23 00:04:46;;;;;;;;;;;14.10;99.90;;;;;;4992553;28;19917;-79
2022/09/23 00:07:12;;;;;;;;;;;13.90;99.90;;;;;;4973877;28;19929;-78
2022/09/23 00:09:38;;;;;;;;;;;13.80;99.90;;;;;;4993372;28;20363;-79
2022/09/23 00:12:04;;;;;;;;;;;13.80;99.90;;;;;;4974643;28;19921;-78
2022/09/23 00:14:30;;;;;;;;;;;13.80;99.90;;;;;;4990441;28;19920;-79
2022/09/23 00:16:56;;;;;;;;;;;13.80;99.90;;;;;;4991159;28;19909;-78
2022/09/23 00:19:21;;;;;;;;;;;13.90;99.90;;;;;;4974564;28;19948;-78
2022/09/23 00:21:47;;;;;;;;;;;13.80;99.90;;;;;;4991106;28;19920;-78
2022/09/23 00:24:14;;;;;;;;;;;13.80;99.90;;;;;;4992086;28;19909;-79
2022/09/23 00:26:40;;;;;;;;;;;13.80;99.90;;;;;;4997778;28;19910;-79
2022/09/23 00:29:06;;;;;;;;;;;13.80;99.90;;;;;;4967994;28;19921;-79
2022/09/23 00:31:32;;;;;;;;;;;14.00;99.90;;;;;;4981371;28;19914;-79
2022/09/23 00:33:59;;;;;;;;;;;14.10;99.90;;;;;;4984009;28;21800;-79
2022/09/23 00:36:25;;;;;;;;;;;14.10;99.90;;;;;;4962498;28;19921;-80
2022/09/23 00:38:52;;;;;;;;;;;14.10;99.90;;;;;;4990067;28;19953;-79
2022/09/23 00:41:17;;;;;;;;;;;14.20;99.90;;;;;;4989135;28;20207;-79
2022/09/23 00:43:51;;;;;;;;;;;14.20;99.90;;;;;;4997931;28;19949;-78
2022/09/23 00:46:18;;;;;;;;;;;14.20;99.90;;;;;;4996146;28;20355;-78
2022/09/23 00:48:44;;;;;;;;;;;14.10;99.90;;;;;;4977175;28;19910;-78
2022/09/23 00:51:12;;;;;;;;;;;14.10;99.90;;;;;;4998091;28;19914;-78
2022/09/23 00:53:38;;;;;;;;;;;14.10;99.90;;;;;;4980015;28;19956;-78
2022/09/23 00:56:06;;;;;;;;;;;14.20;99.90;;;;;;4996448;28;20315;-78
2022/09/23 00:58:33;;;;;;;;;;;14.10;99.90;;;;;;4996821;28;19933;-78
2022/09/23 01:01:00;;;;;;;;;;;14.00;99.90;;;;;;4990273;28;20003;-78
2022/09/23 01:03:26;;;;;;;;;;;14.00;99.90;;;;;;4998434;28;19909;-78
2022/09/23 01:05:52;;;;;;;;;;;14.00;99.90;;;;;;4998027;28;19914;-79
2022/09/23 01:08:19;;;;;;;;;;;14.00;99.90;;;;;;4998746;28;19914;-78
2022/09/23 01:11:01;;;;;;;;;;;14.00;99.90;;;;;;4979646;28;19914;-78
2022/09/23 01:13:42;;;;;;;;;;;13.90;99.90;;;;;;4980682;28;19957;-78
2022/09/23 01:16:14;;;;;;;;;;;13.80;99.90;;;;;;4996436;28;19909;-78
2022/09/23 01:18:53;;;;;;;;;;;13.70;99.90;;;;;;4980888;28;19909;-79
2022/09/23 01:21:21;;;;;;;;;;;13.70;99.90;;;;;;4975811;28;19945;-79
2022/09/23 01:24:06;;;;;;;;;;;13.70;99.90;;;;;;4997681;28;19937;-78
2022/09/23 01:26:35;;;;;;;;;;;13.70;99.90;;;;;;4998495;28;19931;-79
2022/09/23 01:29:03;;;;;;;;;;;13.60;99.90;;;;;;4982055;28;19929;-78
2022/09/23 01:31:32;;;;;;;;;;;13.60;99.90;;;;;;4998788;28;20015;-78
2022/09/23 01:34:05;;;;;;;;;;;13.60;99.90;;;;;;4998322;28;19941;-79
2022/09/23 01:36:33;;;;;;;;;;;13.60;99.90;;;;;;4997278;28;19955;-79
2022/09/23 01:39:02;;;;;;;;;;;13.70;99.90;;;;;;4992890;28;19963;-78
2022/09/23 01:41:31;;;;;;;;;;;13.70;99.90;;;;;;4980192;28;19916;-79
2022/09/23 01:44:12;;;;;;;;;;;13.80;99.90;;;;;;4973878;28;19905;-79
2022/09/23 01:46:38;;;;;;;;;;;13.80;99.90;;;;;;4994575;28;19909;-79
2022/09/23 01:49:10;;;;;;;;;;;13.80;99.90;;;;;;4979069;28;19948;-78
2022/09/23 01:51:41;;;;;;;;;;;13.80;99.90;;;;;;4994026;28;19910;-79
2022/09/23 01:54:26;;;;;;;;;;;13.90;99.90;;;;;;4976102;28;19916;-78
2022/09/23 01:57:07;;;;;;;;;;;13.80;99.90;;;;;;4986341;28;20543;-78
2022/09/23 01:59:38;;;;;;;;;;;13.90;99.90;;;;;;4996587;28;20351;-78
2022/09/23 02:02:10;;;;;;;;;;;13.90;99.90;;;;;;4993663;28;20028;-79
2022/09/23 02:04:44;;;;;;;;;;;13.90;99.90;;;;;;4995740;28;19941;-79
2022/09/23 02:07:15;;;;;;;;;;;13.90;99.90;;;;;;4991947;28;19918;-80
2022/09/23 02:09:42;;;;;;;;;;;13.90;99.90;;;;;;4992061;28;19924;-78
2022/09/23 02:12:11;;;;;;;;;;;13.90;99.90;;;;;;4993952;28;20041;-80
2022/09/23 02:14:56;;;;;;;;;;;13.90;99.90;;;;;;4989323;28;19910;-78
2022/09/23 02:17:27;;;;;;;;;;;13.90;99.90;;;;;;4992284;28;19917;-78
2022/09/23 02:19:56;;;;;;;;;;;13.90;99.90;;;;;;4975582;28;19909;-78
2022/09/23 02:22:26;;;;;;;;;;;13.90;99.90;;;;;;4997476;28;19918;-78
2022/09/23 02:24:54;;;;;;;;;;;13.80;99.90;;;;;;4993973;28;19918;-78
2022/09/23 02:27:29;;;;;;;;;;;13.80;99.90;;;;;;4995609;28;19914;-79
2022/09/23 02:30:03;;;;;;;;;;;13.80;99.90;;;;;;4978366;28;19918;-78
2022/09/23 02:32:44;;;;;;;;;;;13.70;99.90;;;;;;4992898;28;19914;-78
2022/09/23 02:35:16;;;;;;;;;;;13.60;99.90;;;;;;4988907;28;19984;-79
2022/09/23 02:37:58;;;;;;;;;;;13.50;99.90;;;;;;4977398;28;19928;-79
2022/09/23 02:40:45;;;;;;;;;;;13.50;99.90;;;;;;4978300;28;19920;-78
2022/09/23 02:43:21;;;;;;;;;;;13.50;99.90;;;;;;4992444;28;20020;-78
2022/09/23 02:45:46;;;;;;;;;;;13.50;99.90;;;;;;4993920;28;19918;-78
2022/09/23 02:48:15;;;;;;;;;;;13.50;99.90;;;;;;4990113;28;19918;-78
2022/09/23 02:50:41;;;;;;;;;;;13.50;99.90;;;;;;4971749;28;19918;-78
2022/09/23 02:53:06;;;;;;;;;;;13.50;99.90;;;;;;4968245;28;20447;-79
2022/09/23 02:55:32;;;;;;;;;;;13.40;99.90;;;;;;4988066;28;19917;-78
2022/09/23 02:58:01;;;;;;;;;;;13.40;99.90;;;;;;4971945;28;20000;-78
2022/09/23 03:00:45;;;;;;;;;;;13.40;99.90;;;;;;4988969;28;19996;-78
2022/09/23 03:03:22;;;;;;;;;;;13.40;99.90;;;;;;4966379;28;19957;-78
2022/09/23 03:05:54;;;;;;;;;;;13.40;99.90;;;;;;4990316;28;20364;-78
2022/09/23 03:08:28;;;;;;;;;;;13.40;99.90;;;;;;4991165;28;19984;-78
2022/09/23 03:11:07;;;;;;;;;;;13.30;99.90;;;;;;4990509;28;20655;-78
2022/09/23 03:13:34;;;;;;;;;;;13.40;99.90;;;;;;4976256;28;20023;-78
2022/09/23 03:16:06;;;;;;;;;;;13.40;99.90;;;;;;4975786;28;20399;-78
2022/09/23 03:18:38;;;;;;;;;;;13.40;99.90;;;;;;4989786;28;20252;-78
2022/09/23 03:21:06;;;;;;;;;;;13.40;99.90;;;;;;4989330;28;19918;-78
2022/09/23 03:23:34;;;;;;;;;;;13.50;99.90;;;;;;4989657;28;19914;-78
2022/09/23 03:26:03;;;;;;;;;;;13.50;99.90;;;;;;4989412;28;19917;-78
2022/09/23 03:28:29;;;;;;;;;;;13.50;99.90;;;;;;4991562;28;19956;-78
2022/09/23 03:30:59;;;;;;;;;;;13.40;99.90;;;;;;4988104;28;19937;-79
2022/09/23 03:33:26;;;;;;;;;;;13.40;99.90;;;;;;4989071;28;19910;-77
2022/09/23 03:38:42;;;;;;;;;;;13.30;99.90;;;;;;4988459;28;20307;-78
2022/09/23 03:41:10;;;;;;;;;;;13.30;99.90;;;;;;4971686;28;19910;-78
2022/09/23 03:43:36;;;;;;;;;;;13.30;99.90;;;;;;4986258;28;19917;-77
2022/09/23 03:46:02;;;;;;;;;;;13.30;99.90;;;;;;4990149;28;19924;-78
2022/09/23 03:48:28;;;;;;;;;;;13.20;99.90;;;;;;4991637;28;19913;-78
2022/09/23 03:50:53;;;;;;;;;;;13.30;99.90;;;;;;4974081;28;19913;-78
2022/09/23 03:53:20;;;;;;;;;;;13.30;99.90;;;;;;4988255;28;19932;-78
2022/09/23 03:55:46;;;;;;;;;;;13.30;99.90;;;;;;4989649;28;19921;-78
2022/09/23 03:58:12;;;;;;;;;;;13.30;99.90;;;;;;4972154;28;19914;-78
2022/09/23 04:00:38;;;;;;;;;;;13.20;99.90;;;;;;4987857;28;19910;-78
2022/09/23 04:03:04;;;;;;;;;;;13.20;99.90;;;;;;4987588;28;19928;-78
2022/09/23 04:05:29;;;;;;;;;;;13.30;99.90;;;;;;4989119;28;19914;-78
2022/09/23 04:07:55;;;;;;;;;;;13.30;99.90;;;;;;4987390;28;19910;-78
2022/09/23 04:10:21;;;;;;;;;;;13.30;99.90;;;;;;4970840;28;19941;-78
2022/09/23 04:12:47;;;;;;;;;;;13.20;99.90;;;;;;4984297;28;19922;-78
2022/09/23 04:15:13;;;;;;;;;;;13.20;99.90;;;;;;4983098;28;19921;-78
2022/09/23 04:17:38;;;;;;;;;;;13.20;99.90;;;;;;4988044;28;19965;-77
2022/09/23 04:20:04;;;;;;;;;;;13.10;99.90;;;;;;4987895;28;19984;-78
2022/09/23 04:22:31;;;;;;;;;;;13.10;99.90;;;;;;4978028;28;19940;-78
2022/09/23 04:24:57;;;;;;;;;;;13.10;99.90;;;;;;4992301;28;19918;-80
2022/09/23 04:27:22;;;;;;;;;;;13.10;99.90;;;;;;4972439;28;20439;-78
2022/09/23 04:29:48;;;;;;;;;;;13.10;99.90;;;;;;4972769;28;19920;-78
2022/09/23 04:32:14;;;;;;;;;;;13.10;99.90;;;;;;4988746;28;19909;-78
2022/09/23 04:34:39;;;;;;;;;;;13.10;99.90;;;;;;4987749;28;19968;-79
2022/09/23 04:37:05;;;;;;;;;;;13.10;99.90;;;;;;4972373;28;20394;-78
2022/09/23 04:39:31;;;;;;;;;;;13.00;99.90;;;;;;4987542;28;19979;-78
2022/09/23 04:41:57;;;;;;;;;;;13.10;99.90;;;;;;4972160;28;19918;-78
2022/09/23 04:44:23;;;;;;;;;;;13.10;99.90;;;;;;4990694;28;19910;-78
2022/09/23 04:46:49;;;;;;;;;;;13.10;99.90;;;;;;4990439;28;19956;-78
2022/09/23 04:49:14;;;;;;;;;;;13.10;99.90;;;;;;4987734;28;21453;-78
2022/09/23 04:51:42;;;;;;;;;;;13.10;99.90;;;;;;4973909;28;19921;-79
2022/09/23 04:54:08;;;;;;;;;;;13.10;99.90;;;;;;4974435;28;20344;-78
2022/09/23 04:56:34;;;;;;;;;;;13.10;99.90;;;;;;4988598;28;20034;-79
2022/09/23 04:59:03;;;;;;;;;;;13.10;99.90;;;;;;4990657;28;19953;-79
2022/09/23 05:01:33;;;;;;;;;;;13.10;99.90;;;;;;4988201;28;20315;-79
2022/09/23 05:04:04;;;;;;;;;;;13.10;99.90;;;;;;4996798;28;19917;-79
2022/09/23 05:06:30;;;;;;;;;;;13.20;99.90;;;;;;4981953;28;19910;-78
2022/09/23 05:08:57;;;;;;;;;;;13.10;99.90;;;;;;4998407;28;20240;-78
2022/09/23 05:11:23;;;;;;;;;;;13.10;99.90;;;;;;4998175;28;20438;-78
2022/09/23 05:13:49;;;;;;;;;;;13.10;99.90;;;;;;4981289;28;20140;-78
2022/09/23 05:16:15;;;;;;;;;;;13.10;99.90;;;;;;4968257;28;20283;-78
2022/09/23 05:18:42;;;;;;;;;;;13.10;99.90;;;;;;4981308;28;19944;-78
2022/09/23 05:21:12;;;;;;;;;;;13.20;99.90;;;;;;4998958;28;19906;-78
2022/09/23 05:23:39;;;;;;;;;;;13.20;99.90;;;;;;4997725;28;20414;-78
2022/09/23 05:26:11;;;;;;;;;;;13.20;99.90;;;;;;4978873;28;19963;-77
2022/09/23 05:28:38;;;;;;;;;;;13.20;99.90;;;;;;4996716;28;19932;-78
2022/09/23 05:31:08;;;;;;;;;;;13.30;99.90;;;;;;4995547;28;19918;-78
2022/09/23 05:33:34;;;;;;;;;;;13.30;99.90;;;;;;4997433;28;19912;-77
2022/09/23 05:36:01;;;;;;;;;;;13.30;99.90;;;;;;4996074;28;19910;-78
2022/09/23 05:38:28;;;;;;;;;;;13.30;99.90;;;;;;4998374;28;20352;-78
2022/09/23 05:40:57;;;;;;;;;;;13.40;99.90;;;;;;4997092;28;20129;-78
2022/09/23 05:43:23;;;;;;;;;;;13.40;99.90;;;;;;4998546;28;19910;-78
2022/09/23 05:45:49;;;;;;;;;;;13.40;99.90;;;;;;4977726;28;19910;-78
2022/09/23 05:48:17;;;;;;;;;;;13.50;99.90;;;;;;4990482;28;19961;-78
2022/09/23 05:50:49;;;;;;;;;;;13.50;99.90;;;;;;4990048;28;19918;-78
2022/09/23 05:53:15;;;;;;;;;;;13.50;99.90;;;;;;4996893;28;21521;-78
2022/09/23 05:55:41;;;;;;;;;;;13.60;99.90;;;;;;4988952;28;20202;-79
2022/09/23 05:58:06;;;;;;;;;;;13.60;99.90;;;;;;4995855;28;19928;-79
2022/09/23 06:00:32;;;;;;;;;;;13.60;99.90;;;;;;4974052;28;19938;-78
2022/09/23 06:02:57;;;;;;;;;;;13.60;99.90;;;;;;4988292;28;19910;-79
2022/09/23 06:05:23;;;;;;;;;;;13.60;99.90;;;;;;4988953;28;19909;-79
2022/09/23 06:07:49;;;;;;;;;;;13.50;99.90;;;;;;4991211;28;19914;-79
2022/09/23 06:10:15;;;;;;;;;;;13.50;99.90;;;;;;4988436;28;19961;-78
2022/09/23 06:12:42;;;;;;;;;;;13.50;99.90;;;;;;4999043;28;19910;-78
2022/09/23 06:15:08;;;;;;;;;;;13.60;99.90;;;;;;4998627;28;19910;-78
2022/09/23 06:17:34;;;;;;;;;;;13.60;99.90;;;;;;4998759;28;19909;-78
2022/09/23 06:20:00;;;;;;;;;;;13.70;99.90;;;;;;4979963;28;19929;-78
2022/09/23 06:22:25;;;;;;;;;;;13.80;99.90;;;;;;4975377;28;19914;-79
2022/09/23 06:24:51;;;;;;;;;;;13.90;99.90;;;;;;4992417;28;19910;-78
2022/09/23 06:27:17;;;;;;;;;;;14.10;99.90;;;;;;4989984;28;20438;-78
2022/09/23 06:29:42;;;;;;;;;;;14.10;99.90;;;;;;4989652;28;19914;-78
2022/09/23 06:32:08;;;;;;;;;;;14.30;99.90;;;;;;4993778;28;19952;-80
2022/09/23 06:34:34;;;;;;;;;;;14.40;99.90;;;;;;5003623;28;19920;-78
2022/09/23 06:36:59;;;;;;;;;;;14.50;99.90;;;;;;4997853;28;20371;-78
2022/09/23 06:39:25;;;;;;;;;;;14.70;99.90;;;;;;4981088;28;19924;-79
2022/09/23 06:41:51;;;;;;;;;;;14.80;99.90;;;;;;4998566;28;19909;-79
2022/09/23 06:44:16;;;;;;;;;;;14.70;99.90;;;;;;4990122;28;19909;-79
2022/09/23 06:46:42;;;;;;;;;;;14.70;99.90;;;;;;4994288;28;20414;-79
2022/09/23 06:49:09;;;;;;;;;;;14.80;99.90;;;;;;4978765;28;19933;-78
2022/09/23 06:51:35;;;;;;;;;;;14.90;99.90;;;;;;4980120;28;20295;-79
2022/09/23 06:54:01;;;;;;;;;;;15.00;99.90;;;;;;5002977;28;19917;-82
2022/09/23 06:56:27;;;;;;;;;;;15.00;99.90;;;;;;4995393;28;19914;-78
2022/09/23 06:58:53;;;;;;;;;;;15.00;99.90;;;;;;5000237;28;19913;-79
2022/09/23 07:01:22;;;;;;;;;;;15.10;99.90;;;;;;4999456;28;19953;-79
2022/09/23 07:03:51;;;;;;;;;;;15.20;99.90;;;;;;5002551;28;20376;-79
2022/09/23 07:06:17;;;;;;;;;;;15.30;99.90;;;;;;5002103;28;19906;-79
2022/09/23 07:08:45;;;;;;;;;;;15.40;99.90;;;;;;4999730;28;19921;-78
2022/09/23 07:11:12;;;;;;;;;;;15.50;99.90;;;;;;4978668;28;19920;-78
2022/09/23 07:13:39;;;;;;;;;;;15.50;99.90;;;;;;4997184;28;19912;-70
2022/09/23 07:16:05;;;;;;;;;;;15.50;99.90;;;;;;4988339;28;19932;-71
2022/09/23 07:18:32;;;;;;;;;;;15.60;99.90;;;;;;4990261;28;19930;-70
2022/09/23 07:21:08;;;;;;;;;;;15.70;99.90;;;;;;4986244;28;19937;-71
2022/09/23 07:23:35;;;;;;;;;;;15.70;99.90;;;;;;4971159;28;19917;-71
2022/09/23 07:26:02;;;;;;;;;;;15.80;99.90;;;;;;4987266;28;19913;-71
2022/09/23 07:28:28;;;;;;;;;;;16.00;99.90;;;;;;4969243;28;19918;-71
2022/09/23 07:30:55;;;;;;;;;;;16.20;99.90;;;;;;4969540;28;19921;-70
2022/09/23 07:33:20;;;;;;;;;;;16.30;99.90;;;;;;4989915;28;20028;-71
2022/09/23 07:35:46;;;;;;;;;;;16.40;99.90;;;;;;4970442;28;20032;-71
2022/09/23 07:38:12;;;;;;;;;;;16.50;99.90;;;;;;4988515;28;19937;-71
2022/09/23 07:40:41;;;;;;;;;;;16.50;99.90;;;;;;4988645;28;19967;-71
2022/09/23 07:43:07;;;;;;;;;;;16.60;99.90;;;;;;4971447;28;19916;-70
2022/09/23 07:45:33;;;;;;;;;;;16.50;99.90;;;;;;4971753;28;19928;-69
2022/09/23 07:47:59;;;;;;;;;;;16.50;99.90;;;;;;4989309;28;19910;-71
2022/09/23 07:50:25;;;;;;;;;;;16.40;99.90;;;;;;4987080;28;20287;-71
2022/09/23 07:52:51;;;;;;;;;;;16.50;99.90;;;;;;4986417;28;20365;-71
2022/09/23 07:55:18;;;;;;;;;;;16.70;99.90;;;;;;4986574;28;19933;-71
2022/09/23 07:57:43;;;;;;;;;;;16.80;99.90;;;;;;4986723;28;19913;-70
2022/09/23 08:00:09;;;;;;;;;;;16.80;99.90;;;;;;4985715;28;19940;-71
2022/09/23 08:02:35;;;;;;;;;;;17.00;99.90;;;;;;4985211;28;20036;-71
2022/09/23 08:05:01;;;;;;;;;;;17.00;99.90;;;;;;4985993;28;20249;-71
2022/09/23 08:07:33;;;;;;;;;;;17.00;99.90;;;;;;4986727;28;19913;-70
2022/09/23 08:09:59;;;;;;;;;;;17.00;99.90;;;;;;4986000;28;19913;-70
2022/09/23 08:12:25;;;;;;;;;;;17.20;99.90;;;;;;4987423;28;19920;-70
2022/09/23 08:14:51;;;;;;;;;;;17.20;99.90;;;;;;4986695;28;19909;-70
2022/09/23 08:17:16;;;;;;;;;;;17.20;99.90;;;;;;4987354;28;20028;-69
2022/09/23 08:19:42;;;;;;;;;;;17.10;99.90;;;;;;4985497;28;20372;-71
2022/09/23 08:22:07;;;;;;;;;;;17.10;99.90;;;;;;4986470;28;19910;-71
2022/09/23 08:24:33;;;;;;;;;;;17.10;99.90;;;;;;4970655;28;20272;-71
2022/09/23 08:26:59;;;;;;;;;;;17.20;99.90;;;;;;4986898;28;19914;-69
2022/09/23 08:29:25;;;;;;;;;;;17.20;99.90;;;;;;4970987;28;20001;-69
2022/09/23 08:31:51;;;;;;;;;;;17.10;99.90;;;;;;4984816;28;20080;-69
2022/09/23 08:34:18;;;;;;;;;;;17.10;99.90;;;;;;4985122;28;20600;-70
2022/09/23 08:36:44;;;;;;;;;;;17.10;99.90;;;;;;4988340;28;19910;-70
2022/09/23 08:39:14;;;;;;;;;;;17.10;99.90;;;;;;4990741;28;19918;-70
2022/09/23 08:41:39;;;;;;;;;;;17.10;99.90;;;;;;4976302;28;19916;-70
2022/09/23 08:44:09;;;;;;;;;;;17.10;99.90;;;;;;4992710;28;20327;-70
2022/09/23 08:46:36;;;;;;;;;;;17.10;99.90;;;;;;4993825;28;20386;-71
2022/09/23 08:49:04;;;;;;;;;;;17.00;99.90;;;;;;4993402;28;19921;-70
2022/09/23 08:51:46;;;;;;;;;;;17.00;99.90;;;;;;4976937;28;20017;-70
2022/09/23 08:54:12;;;;;;;;;;;17.10;99.90;;;;;;4976353;28;19910;-71
2022/09/23 08:56:38;;;;;;;;;;;17.10;99.90;;;;;;4975792;28;19937;-71
2022/09/23 08:59:04;;;;;;;;;;;17.10;99.90;;;;;;4992947;28;19932;-71
2022/09/23 09:01:30;;;;;;;;;;;17.10;99.90;;;;;;4993454;28;19969;-71
2022/09/23 09:04:14;;;;;;;;;;;17.10;99.90;;;;;;4999834;28;19919;-70
2022/09/23 09:06:41;;;;;;;;;;;17.10;99.90;;;;;;4997931;28;19905;-71
2022/09/23 09:09:20;;;;;;;;;;;17.30;99.90;;;;;;4994230;28;19906;-70
2022/09/23 09:11:48;;;;;;;;;;;17.40;99.90;;;;;;4975935;28;19917;-70
2022/09/23 09:14:21;;;;;;;;;;;17.40;99.90;;;;;;4975191;28;19910;-70
2022/09/23 09:16:54;;;;;;;;;;;17.50;99.90;;;;;;4991631;28;19906;-70
2022/09/23 09:19:31;;;;;;;;;;;17.60;99.90;;;;;;4980093;28;19917;-70
2022/09/23 09:21:56;;;;;;;;;;;17.70;99.90;;;;;;4975799;28;19909;-70
2022/09/23 09:24:33;;;;;;;;;;;17.60;99.90;;;;;;4975736;28;20388;-70
2022/09/23 09:27:09;;;;;;;;;;;17.60;99.90;;;;;;4993592;28;19916;-71
2022/09/23 09:29:40;;;;;;;;;;;17.50;99.90;;;;;;4991858;28;19920;-70
2022/09/23 09:32:19;;;;;;;;;;;17.50;99.90;;;;;;4992888;28;19910;-71
2022/09/23 09:34:54;;;;;;;;;;;17.50;99.90;;;;;;4990639;28;20368;-73
2022/09/23 09:37:28;;;;;;;;;;;17.50;99.90;;;;;;4988857;28;20338;-73
2022/09/23 09:39:56;;;;;;;;;;;17.60;99.90;;;;;;4992801;28;19906;-72
2022/09/23 09:42:25;;;;;;;;;;;17.60;99.90;;;;;;4974750;28;19914;-74
2022/09/23 09:45:01;;;;;;;;;;;17.80;99.90;;;;;;4992106;28;19952;-74
2022/09/23 09:47:39;;;;;;;;;;;17.70;99.90;;;;;;4993700;28;19916;-74
2022/09/23 09:50:07;;;;;;;;;;;17.80;99.90;;;;;;4990690;28;19910;-74
2022/09/23 09:52:33;;;;;;;;;;;17.90;99.90;;;;;;4991134;28;19909;-73
2022/09/23 09:55:19;;;;;;;;;;;18.00;99.90;;;;;;4991559;28;20434;-74
2022/09/23 09:57:51;;;;;;;;;;;18.20;99.90;;;;;;4989845;28;19917;-73
2022/09/23 10:00:25;;;;;;;;;;;18.10;99.90;;;;;;4986288;28;20004;-74
2022/09/23 10:02:55;;;;;;;;;;;18.00;99.90;;;;;;4990707;28;20272;-73
2022/09/23 10:05:25;;;;;;;;;;;18.10;99.90;;;;;;4989288;28;20008;-73
2022/09/23 10:07:51;;;;;;;;;;;18.10;99.90;;;;;;4984400;28;19968;-72
2022/09/23 10:10:23;;;;;;;;;;;18.20;99.90;;;;;;4972551;28;20296;-74
2022/09/23 10:12:52;;;;;;;;;;;18.30;99.90;;;;;;4988844;28;19910;-73
2022/09/23 10:15:43;;;;;;;;;;;18.30;99.90;;;;;;4990486;28;19913;-73
2022/09/23 10:18:18;;;;;;;;;;;18.30;99.90;;;;;;4988481;28;19921;-73
2022/09/23 10:20:45;;;;;;;;;;;18.30;99.90;;;;;;4976363;28;19910;-74
2022/09/23 10:23:21;;;;;;;;;;;18.40;99.90;;;;;;4995928;28;20379;-74
2022/09/23 10:25:57;;;;;;;;;;;18.40;99.90;;;;;;4991718;28;19932;-73
2022/09/23 10:28:31;;;;;;;;;;;18.40;99.90;;;;;;4993886;28;19909;-72
2022/09/23 10:31:04;;;;;;;;;;;18.40;99.90;;;;;;4995802;28;19921;-74
2022/09/23 10:33:30;;;;;;;;;;;18.50;99.90;;;;;;4996662;28;20313;-74
2022/09/23 10:35:56;;;;;;;;;;;18.50;99.90;;;;;;4994967;28;19956;-73
2022/09/23 10:38:22;;;;;;;;;;;18.40;99.90;;;;;;4994031;28;19909;-74
2022/09/23 10:46:48;;;;;;;;;;;18.50;99.90;;;;;;4917284;29;20381;-74
2022/09/23 10:49:20;;;;;;;;;;;18.50;99.90;;;;;;4967201;28;20003;-73
2022/09/23 10:51:59;;;;;;;;;;;18.40;99.90;;;;;;4994282;28;19913;-74
2022/09/23 10:54:37;;;;;;;;;;;18.60;99.90;;;;;;4995934;28;19958;-73
2022/09/23 10:57:36;;;;;;;;;;;18.60;99.90;;;;;;4995883;28;20396;-74
2022/09/23 11:00:15;;;;;;;;;;;18.60;99.90;;;;;;4993845;28;19910;-74
2022/09/23 11:03:08;;;;;;;;;;;18.70;99.90;;;;;;4995083;28;20379;-72
2022/09/23 11:05:37;;;;;;;;;;;18.60;99.90;;;;;;4993306;28;20004;-73
2022/09/23 11:08:26;;;;;;;;;;;18.70;99.90;;;;;;4992135;28;19906;-75
2022/09/23 11:11:24;;;;;;;;;;;18.70;99.90;;;;;;4956597;28;19918;-74
2022/09/23 11:14:16;;;;;;;;;;;18.60;99.90;;;;;;4925297;28;19941;-74
2022/09/23 11:16:45;;;;;;;;;;;18.60;99.90;;;;;;4991402;28;19914;-74
2022/09/23 11:19:23;;;;;;;;;;;18.60;99.90;;;;;;4980745;28;19905;-74
2022/09/23 11:21:50;;;;;;;;;;;18.60;99.90;;;;;;4997578;28;19916;-75
2022/09/23 11:24:26;;;;;;;;;;;18.70;99.90;;;;;;4976353;28;20344;-73
2022/09/23 11:27:03;;;;;;;;;;;18.80;99.90;;;;;;4995476;28;19928;-72
2022/09/23 11:29:48;;;;;;;;;;;18.80;99.90;;;;;;4998565;28;19910;-72
2022/09/23 11:32:16;;;;;;;;;;;18.80;99.90;;;;;;4992200;28;19920;-72
2022/09/23 11:34:51;;;;;;;;;;;18.80;99.90;;;;;;4993246;28;20446;-72
2022/09/23 11:37:19;;;;;;;;;;;18.90;99.90;;;;;;4987569;28;20371;-72
2022/09/23 11:39:50;;;;;;;;;;;18.80;99.90;;;;;;4994123;28;20311;-72
2022/09/23 11:42:24;;;;;;;;;;;18.80;99.90;;;;;;4988211;28;20276;-71
2022/09/23 11:44:57;;;;;;;;;;;18.70;99.90;;;;;;4994828;28;19914;-71
2022/09/23 11:47:30;;;;;;;;;;;18.70;99.90;;;;;;4993624;28;19914;-70
2022/09/23 11:50:02;;;;;;;;;;;18.70;99.90;;;;;;4977031;28;20063;-70
2022/09/23 11:52:29;;;;;;;;;;;18.70;99.90;;;;;;4995865;28;19917;-71
2022/09/23 11:54:55;;;;;;;;;;;18.70;99.90;;;;;;4994670;28;20004;-71
2022/09/23 11:57:34;;;;;;;;;;;18.70;99.90;;;;;;4978239;28;20356;-70
2022/09/23 12:00:06;;;;;;;;;;;18.80;99.90;;;;;;4993974;28;19976;-71
2022/09/23 12:02:48;;;;;;;;;;;18.80;99.90;;;;;;4995654;28;20398;-71
2022/09/23 12:05:17;;;;;;;;;;;19.00;99.90;;;;;;4995021;28;19910;-71
2022/09/23 12:07:47;;;;;;;;;;;18.90;99.90;;;;;;4978197;28;19984;-70
2022/09/23 12:10:14;;;;;;;;;;;19.00;99.90;;;;;;4992959;28;20363;-70
2022/09/23 12:12:59;;;;;;;;;;;19.00;99.90;;;;;;4993772;28;19910;-70
2022/09/23 12:15:38;;;;;;;;;;;19.00;99.90;;;;;;4988549;28;19909;-70
2022/09/23 12:18:12;;;;;;;;;;;19.00;99.90;;;;;;4995463;28;19937;-70
2022/09/23 12:20:58;;;;;;;;;;;19.00;99.90;;;;;;4995662;28;19916;-71
2022/09/23 12:23:25;;;;;;;;;;;19.10;99.90;;;;;;4988680;28;19916;-70
2022/09/23 12:25:56;;;;;;;;;;;19.10;99.90;;;;;;4993866;28;19964;-71
2022/09/23 12:28:44;;;;;;;;;;;19.10;99.90;;;;;;4993435;28;20009;-70
2022/09/23 12:31:12;;;;;;;;;;;19.20;99.90;;;;;;4976825;28;19917;-71
2022/09/23 12:33:38;;;;;;;;;;;19.30;99.90;;;;;;4995035;28;20403;-70
2022/09/23 12:36:04;;;;;;;;;;;19.30;99.90;;;;;;4994551;28;19957;-70
2022/09/23 12:38:30;;;;;;;;;;;19.30;99.90;;;;;;4990804;28;19925;-70
2022/09/23 12:40:57;;;;;;;;;;;19.30;99.90;;;;;;4994851;28;20356;-69
2022/09/23 12:43:30;;;;;;;;;;;19.10;99.90;;;;;;4992736;28;20324;-70
2022/09/23 12:46:15;;;;;;;;;;;19.10;99.90;;;;;;4992138;28;20393;-70
2022/09/23 12:48:56;;;;;;;;;;;19.20;99.90;;;;;;4994056;28;20008;-70
2022/09/23 12:51:23;;;;;;;;;;;19.20;99.90;;;;;;4993091;28;19913;-70
2022/09/23 12:54:12;;;;;;;;;;;19.10;99.90;;;;;;4993130;28;20004;-70
2022/09/23 12:56:38;;;;;;;;;;;19.10;99.90;;;;;;4970680;28;20381;-70
2022/09/23 12:59:20;;;;;;;;;;;19.20;99.90;;;;;;4992930;28;19925;-71
2022/09/23 13:01:46;;;;;;;;;;;19.30;99.90;;;;;;4990852;28;19910;-71
2022/09/23 13:07:16;;;;;;;;;;;19.30;99.90;;;;;;4986736;28;19952;-71
2022/09/23 13:09:45;;;;;;;;;;;19.40;99.90;;;;;;4990466;28;20361;-71
2022/09/23 13:12:24;;;;;;;;;;;19.40;99.90;;;;;;4991933;28;20288;-69
2022/09/23 13:14:52;;;;;;;;;;;19.40;99.90;;;;;;4991803;28;20025;-69
2022/09/23 13:17:23;;;;;;;;;;;19.40;99.90;;;;;;4976257;28;19919;-70
2022/09/23 13:19:57;;;;;;;;;;;19.50;99.90;;;;;;4975212;28;19914;-70
2022/09/23 13:23:00;;;;;;;;;;;19.60;99.90;;;;;;4986780;28;19917;-70
2022/09/23 13:25:34;;;;;;;;;;;19.60;99.90;;;;;;4990028;28;19909;-70
2022/09/23 13:28:00;;;;;;;;;;;19.50;99.90;;;;;;4993697;28;19913;-69
2022/09/23 13:30:26;;;;;;;;;;;19.40;99.90;;;;;;4992294;28;20146;-71
2022/09/23 13:33:01;;;;;;;;;;;19.50;99.90;;;;;;4993979;28;19910;-71
2022/09/23 13:35:49;;;;;;;;;;;19.60;99.90;;;;;;4990588;28;20008;-70
2022/09/23 13:38:24;;;;;;;;;;;19.70;99.90;;;;;;4986985;28;19917;-71
2022/09/23 13:40:50;;;;;;;;;;;19.70;99.90;;;;;;4978936;28;19980;-71
2022/09/23 13:43:23;;;;;;;;;;;19.70;99.90;;;;;;4995526;28;19925;-71
2022/09/23 13:45:49;;;;;;;;;;;19.60;99.90;;;;;;4996559;28;19949;-69
2022/09/23 13:48:15;;;;;;;;;;;19.50;99.90;;;;;;4979798;28;19916;-70
2022/09/23 13:50:49;;;;;;;;;;;19.50;99.90;;;;;;4976439;28;19989;-71
2022/09/23 13:53:26;;;;;;;;;;;19.50;99.90;;;;;;4995638;28;19917;-71
2022/09/23 13:56:02;;;;;;;;;;;19.50;99.90;;;;;;5003285;28;19913;-70
2022/09/23 13:58:29;;;;;;;;;;;19.60;99.90;;;;;;4993048;28;19921;-71
2022/09/23 14:00:54;;;;;;;;;;;19.60;99.90;;;;;;4991910;28;20419;-71
2022/09/23 14:03:20;;;;;;;;;;;19.70;99.90;;;;;;4995557;28;19925;-70
2022/09/23 14:05:47;;;;;;;;;;;19.70;99.90;;;;;;4986399;28;19949;-70
2022/09/23 14:08:13;;;;;;;;;;;19.60;99.90;;;;;;4991953;28;19922;-71
2022/09/23 14:10:41;;;;;;;;;;;19.50;99.90;;;;;;4999379;28;19929;-69
2022/09/23 14:13:12;;;;;;;;;;;19.60;99.90;;;;;;4992270;28;19910;-70
2022/09/23 14:15:38;;;;;;;;;;;19.60;99.90;;;;;;4993435;28;19964;-70
2022/09/23 14:18:05;;;;;;;;;;;19.50;99.90;;;;;;4996658;28;19921;-70
2022/09/23 14:20:31;;;;;;;;;;;19.50;99.90;;;;;;4996863;28;19948;-69
2022/09/23 14:23:08;;;;;;;;;;;19.50;99.90;;;;;;4994692;28;19972;-69
2022/09/23 14:25:34;;;;;;;;;;;19.60;99.90;;;;;;4992566;28;20383;-70
2022/09/23 14:28:01;;;;;;;;;;;19.70;99.90;;;;;;4995421;28;19909;-70
2022/09/23 14:30:27;;;;;;;;;;;19.80;99.90;;;;;;4990479;28;19921;-70
2022/09/23 14:32:53;;;;;;;;;;;19.80;99.90;;;;;;4991702;28;20459;-70
2022/09/23 14:35:20;;;;;;;;;;;19.90;99.90;;;;;;4994986;28;19917;-70
2022/09/23 14:40:36;;;;;;;;;;;19.80;99.90;;;;;;4992153;28;20129;-70
2022/09/23 14:43:22;;;;;;;;;;;19.80;99.90;;;;;;4986328;28;19914;-70
2022/09/23 14:45:51;;;;;;;;;;;19.80;99.90;;;;;;4976117;28;19988;-69
2022/09/23 14:48:19;;;;;;;;;;;19.80;99.90;;;;;;4990746;28;20265;-69